Time;durP1;ratioP1;P1;durP2;ratioP2;P2;SDS_P1;SDS_P2;PMS_P1;PMS_P2;Temp;Humidity;BMP_temperature;BMP_pressure;BME280_temperature;BME280_humidity;BME280_pressure;Samples;Min_cycle;Max_cycle;Signal;HPM_P1;HPM_P2
2022/01/07 00:01:35;;;;;;;0.85;0.85;;;;;;;-2.17;88.73;97371.34;4901364;29;20083;-92
2022/01/07 00:04:03;;;;;;;0.65;0.65;;;;;;;-2.21;88.52;97376.19;4898622;29;20049;-89
2022/01/07 00:06:30;;;;;;;0.90;0.90;;;;;;;-2.32;88.13;97374.97;4897829;29;20564;-86
2022/01/07 00:08:57;;;;;;;0.80;0.80;;;;;;;-2.35;87.63;97370.09;4897634;29;20085;-87
2022/01/07 00:11:24;;;;;;;0.80;0.80;;;;;;;-2.43;87.45;97373.75;4890752;29;20052;-86
2022/01/07 00:13:51;;;;;;;0.90;0.90;;;;;;;-2.52;87.48;97374.94;4897972;29;20415;-86
2022/01/07 00:16:18;;;;;;;0.80;0.80;;;;;;;-2.58;87.78;97365.19;4897503;29;20080;-84
2022/01/07 00:18:45;;;;;;;0.80;0.80;;;;;;;-2.65;87.61;97369.66;4897256;29;20146;-85
2022/01/07 00:21:13;;;;;;;0.80;0.80;;;;;;;-2.70;87.15;97366.81;4897281;29;20139;-85
2022/01/07 00:23:40;;;;;;;0.70;0.70;;;;;;;-2.75;86.53;97375.31;4898294;29;20079;-83
2022/01/07 00:26:07;;;;;;;0.70;0.70;;;;;;;-2.82;86.40;97379.75;4880177;29;20083;-83
2022/01/07 00:28:34;;;;;;;0.80;0.80;;;;;;;-2.93;86.40;97370.59;4908928;29;20054;-83
2022/01/07 00:31:01;;;;;;;0.80;0.80;;;;;;;-2.96;86.05;97378.06;4887487;29;20068;-82
2022/01/07 00:33:28;;;;;;;0.90;0.90;;;;;;;-3.02;85.77;97384.16;4910110;29;20187;-84
2022/01/07 00:35:56;;;;;;;0.77;0.77;;;;;;;-3.05;85.96;97372.97;4882842;29;20501;-84
2022/01/07 00:38:23;;;;;;;0.77;0.77;;;;;;;-2.96;86.01;97388.63;4901468;29;20526;-85
2022/01/07 00:40:50;;;;;;;0.77;0.77;;;;;;;-2.86;85.55;97389.06;4934622;29;20059;-84
2022/01/07 00:43:17;;;;;;;0.90;0.90;;;;;;;-2.75;84.94;97383.25;4935008;29;20055;-84
2022/01/07 00:45:45;;;;;;;0.80;0.80;;;;;;;-2.68;84.74;97389.34;4935031;29;20052;-85
2022/01/07 00:48:12;;;;;;;0.60;0.60;;;;;;;-2.66;83.88;97384.69;4934552;29;20054;-85
2022/01/07 00:50:39;;;;;;;0.95;0.95;;;;;;;-2.66;84.17;97384.69;4938338;29;20066;-84
2022/01/07 00:53:06;;;;;;;0.63;0.63;;;;;;;-2.65;83.01;97381.03;4956839;29;20035;-83
2022/01/07 00:55:35;;;;;;;0.80;0.80;;;;;;;-2.62;82.62;97387.72;4941560;29;20052;-84
2022/01/07 00:58:02;;;;;;;0.70;0.70;;;;;;;-2.61;82.47;97386.72;4943980;29;20059;-84
2022/01/07 01:00:29;;;;;;;0.85;0.85;;;;;;;-2.57;82.17;97389.78;4936456;29;20055;-84
2022/01/07 01:02:59;;;;;;;0.80;0.80;;;;;;;-2.56;81.60;97386.91;4935952;29;20119;-83
2022/01/07 01:05:27;;;;;;;0.70;0.70;;;;;;;-2.62;81.68;97380.63;4935230;29;20055;-86
2022/01/07 01:07:54;;;;;;;0.90;0.90;;;;;;;-2.60;81.05;97376.97;4934657;29;20055;-85
2022/01/07 01:10:24;;;;;;;0.98;0.98;;;;;;;-2.60;80.39;97382.25;4933669;29;20087;-84
2022/01/07 01:12:52;;;;;;;0.70;0.70;;;;;;;-2.65;80.47;97385.50;4917567;29;20435;-84
2022/01/07 01:15:22;;;;;;;0.82;0.82;;;;;;;-2.62;80.21;97379.81;4933996;29;20490;-84
2022/01/07 01:17:51;;;;;;;0.90;0.90;;;;;;;-2.61;79.94;97392.00;4919851;29;20043;-85
2022/01/07 01:20:19;;;;;;;0.80;0.80;;;;;;;-2.63;79.57;97383.47;4937485;29;20066;-86
2022/01/07 01:22:47;;;;;;;0.73;0.73;;;;;;;-2.62;79.43;97385.91;4937877;29;20067;-85
2022/01/07 01:25:14;;;;;;;0.90;0.90;;;;;;;-2.64;79.52;97390.56;4937432;29;20051;-85
2022/01/07 01:27:41;;;;;;;1.00;1.00;;;;;;;-2.67;79.67;97392.81;4937871;29;20515;-85
2022/01/07 01:30:11;;;;;;;0.90;0.90;;;;;;;-2.68;79.62;97386.72;4937439;29;20094;-85
2022/01/07 01:32:38;;;;;;;0.90;0.90;;;;;;;-2.66;79.95;97387.34;4937816;29;20414;-86
2022/01/07 01:35:07;;;;;;;0.90;0.90;;;;;;;-2.62;79.88;97395.66;4937513;29;20426;-88
2022/01/07 01:37:34;;;;;;;0.80;0.80;;;;;;;-2.64;79.89;97398.47;4920647;29;20075;-81
2022/01/07 01:40:01;;;;;;;0.90;0.90;;;;;;;-2.66;79.89;97392.63;4937766;29;20134;-87
2022/01/07 01:42:29;;;;;;;0.80;0.80;;;;;;;-2.67;79.99;97395.44;4937634;29;20146;-85
2022/01/07 01:44:56;;;;;;;0.73;0.73;;;;;;;-2.70;80.13;97409.06;4937482;29;20484;-84
2022/01/07 01:47:23;;;;;;;0.80;0.80;;;;;;;-2.72;80.29;97403.16;4937604;29;20075;-85
2022/01/07 01:49:50;;;;;;;0.90;0.90;;;;;;;-2.73;80.02;97398.88;4938214;29;20067;-85
2022/01/07 01:52:17;;;;;;;0.80;0.80;;;;;;;-2.76;80.28;97405.38;4938630;29;20103;-83
2022/01/07 01:54:44;;;;;;;0.90;0.90;;;;;;;-2.81;80.25;97407.81;4937830;29;20075;-84
2022/01/07 01:57:12;;;;;;;0.90;0.90;;;;;;;-2.84;80.50;97394.97;4937383;29;20543;-84
2022/01/07 01:59:39;;;;;;;1.00;1.00;;;;;;;-2.84;80.16;97398.47;4920168;29;20575;-85
2022/01/07 02:02:07;;;;;;;0.70;0.70;;;;;;;-2.86;80.24;97392.56;4936697;29;20048;-86
2022/01/07 02:04:37;;;;;;;0.77;0.77;;;;;;;-2.87;80.12;97388.28;4937128;29;20055;-84
2022/01/07 02:07:06;;;;;;;0.80;0.80;;;;;;;-2.87;79.35;97398.03;4936825;29;20143;-84
2022/01/07 02:09:36;;;;;;;0.75;0.75;;;;;;;-2.98;79.56;97403.88;4937609;29;20067;-84
2022/01/07 02:12:05;;;;;;;0.85;0.85;;;;;;;-3.05;80.37;97411.75;4936979;29;20062;-85
2022/01/07 02:14:34;;;;;;;0.70;0.70;;;;;;;-3.08;80.10;97407.69;4937229;29;20126;-84
2022/01/07 02:17:06;;;;;;;0.80;0.80;;;;;;;-3.08;80.04;97407.69;4937066;29;20067;-85
2022/01/07 02:19:34;;;;;;;0.80;0.80;;;;;;;-3.06;80.28;97410.16;4937424;29;20062;-84
2022/01/07 02:22:02;;;;;;;0.80;0.80;;;;;;;-3.06;79.98;97410.97;4937184;29;20055;-84
2022/01/07 02:24:30;;;;;;;0.80;0.80;;;;;;;-3.02;79.47;97426.41;4937032;29;20138;-85
2022/01/07 02:26:57;;;;;;;0.98;0.98;;;;;;;-3.02;79.00;97415.84;4937088;29;20498;-84
2022/01/07 02:29:25;;;;;;;0.90;0.90;;;;;;;-3.07;79.46;97425.16;4918893;29;20056;-84
2022/01/07 02:31:54;;;;;;;0.77;0.77;;;;;;;-3.06;79.56;97429.44;4936946;29;20075;-83
2022/01/07 02:34:22;;;;;;;0.80;0.80;;;;;;;-3.05;79.35;97432.88;4936541;29;20053;-84
2022/01/07 02:36:49;;;;;;;0.70;0.70;;;;;;;-3.05;78.97;97433.69;4919382;29;20471;-83
2022/01/07 02:39:16;;;;;;;0.90;0.90;;;;;;;-3.06;78.95;97431.25;4919501;29;20052;-84
2022/01/07 02:41:43;;;;;;;0.77;0.77;;;;;;;-3.08;78.89;97434.09;4936874;29;20440;-84
2022/01/07 02:44:10;;;;;;;0.77;0.77;;;;;;;-3.11;79.06;97434.47;4936707;29;20075;-84
2022/01/07 02:46:38;;;;;;;0.90;0.90;;;;;;;-3.09;79.13;97435.09;4936463;29;20444;-84
2022/01/07 02:49:10;;;;;;;0.80;0.80;;;;;;;-3.12;79.39;97437.31;4935997;29;20503;-84
2022/01/07 02:51:37;;;;;;;0.77;0.77;;;;;;;-3.15;79.57;97435.88;4919192;29;20519;-84
2022/01/07 02:54:06;;;;;;;0.80;0.80;;;;;;;-3.11;79.40;97437.13;4936206;29;20130;-85
2022/01/07 02:56:33;;;;;;;0.80;0.80;;;;;;;-3.10;78.88;97437.94;4936845;29;20056;-85
2022/01/07 02:59:03;;;;;;;0.90;0.90;;;;;;;-3.08;78.71;97441.19;4936610;29;20062;-84
2022/01/07 03:01:30;;;;;;;0.70;0.70;;;;;;;-3.15;78.76;97442.97;4936115;29;20142;-84
2022/01/07 03:03:58;;;;;;;0.80;0.80;;;;;;;-3.14;78.72;97447.25;4936431;29;20074;-85
2022/01/07 03:06:25;;;;;;;0.90;0.90;;;;;;;-3.16;78.71;97450.09;4935658;29;20059;-85
2022/01/07 03:08:53;;;;;;;0.60;0.60;;;;;;;-3.12;78.64;97453.94;4936000;29;20119;-84
2022/01/07 03:11:21;;;;;;;0.80;0.80;;;;;;;-3.11;78.38;97452.97;4935300;29;20055;-85
2022/01/07 03:13:48;;;;;;;0.82;0.82;;;;;;;-3.12;78.57;97447.88;4935772;29;20515;-85
2022/01/07 03:16:15;;;;;;;0.80;0.80;;;;;;;-3.15;78.65;97449.06;4935537;29;20050;-84
2022/01/07 03:18:43;;;;;;;0.70;0.70;;;;;;;-3.12;78.47;97447.88;4935720;29;20111;-84
2022/01/07 03:21:10;;;;;;;0.70;0.70;;;;;;;-3.11;78.27;97455.59;4935473;29;20047;-85
2022/01/07 03:23:40;;;;;;;0.88;0.88;;;;;;;-3.10;78.56;97446.66;4936110;29;20130;-85
2022/01/07 03:26:10;;;;;;;0.82;0.82;;;;;;;-3.15;78.85;97446.44;4935600;29;20422;-85
2022/01/07 03:28:39;;;;;;;0.60;0.60;;;;;;;-3.14;78.82;97460.44;4935803;29;20058;-84
2022/01/07 03:31:06;;;;;;;0.80;0.80;;;;;;;-3.18;78.98;97461.84;4918477;29;20146;-85
2022/01/07 03:33:33;;;;;;;0.70;0.70;;;;;;;-3.18;78.88;97460.03;4935435;29;20059;-84
2022/01/07 03:36:00;;;;;;;0.65;0.65;;;;;;;-3.23;79.13;97451.06;4919167;29;20479;-85
2022/01/07 03:38:28;;;;;;;0.63;0.63;;;;;;;-3.21;79.10;97455.13;4935352;29;20082;-85
2022/01/07 03:40:55;;;;;;;0.77;0.77;;;;;;;-3.19;79.21;97458.41;4918372;29;20467;-84
2022/01/07 03:43:22;;;;;;;0.90;0.90;;;;;;;-3.22;79.13;97450.84;4934937;29;20594;-84
2022/01/07 03:45:50;;;;;;;0.80;0.80;;;;;;;-3.22;79.13;97450.03;4935828;29;20064;-83
2022/01/07 03:48:17;;;;;;;0.95;0.95;;;;;;;-3.23;79.27;97453.69;4934814;29;20463;-84
2022/01/07 03:50:44;;;;;;;0.90;0.90;;;;;;;-3.30;79.47;97451.81;4934847;29;20047;-84
2022/01/07 03:53:11;;;;;;;0.80;0.80;;;;;;;-3.32;79.60;97453.03;4935035;29;20083;-85
2022/01/07 03:55:38;;;;;;;0.90;0.90;;;;;;;-3.30;79.65;97465.00;4935134;29;20134;-84
2022/01/07 03:58:06;;;;;;;0.80;0.80;;;;;;;-3.30;79.85;97466.84;4934921;29;20072;-83
2022/01/07 04:00:37;;;;;;;0.70;0.70;;;;;;;-3.28;79.86;97464.84;4935337;29;20083;-85
2022/01/07 04:03:07;;;;;;;0.73;0.73;;;;;;;-3.24;79.92;97468.72;4935721;29;20130;-84
2022/01/07 04:05:35;;;;;;;0.80;0.80;;;;;;;-3.22;80.04;97463.22;4936073;29;20078;-85
2022/01/07 04:08:03;;;;;;;1.00;1.00;;;;;;;-3.27;80.22;97458.53;4919012;29;20507;-84
2022/01/07 04:10:30;;;;;;;0.80;0.80;;;;;;;-3.20;80.45;97469.13;4935363;29;20150;-84
2022/01/07 04:12:58;;;;;;;0.95;0.95;;;;;;;-3.22;80.76;97477.25;4935120;29;20138;-84
2022/01/07 04:15:25;;;;;;;0.65;0.65;;;;;;;-3.26;81.39;97478.66;4934579;29;20123;-84
2022/01/07 04:17:54;;;;;;;0.70;0.70;;;;;;;-3.31;81.79;97478.41;4934904;29;20419;-83
2022/01/07 04:20:26;;;;;;;0.60;0.60;;;;;;;-3.38;82.36;97478.38;4917715;29;20086;-85
2022/01/07 04:22:54;;;;;;;0.73;0.73;;;;;;;-3.43;82.76;97482.59;4934480;29;20551;-85
2022/01/07 04:25:21;;;;;;;0.80;0.80;;;;;;;-3.47;82.84;97478.69;4934546;29;20478;-84
2022/01/07 04:27:54;;;;;;;0.93;0.93;;;;;;;-3.52;83.16;97479.28;4934671;29;20075;-83
2022/01/07 04:30:21;;;;;;;0.70;0.70;;;;;;;-3.54;83.35;97476.84;4934320;29;20507;-83
2022/01/07 04:32:49;;;;;;;0.85;0.85;;;;;;;-3.58;83.71;97488.78;4917714;29;20051;-82
2022/01/07 04:35:17;;;;;;;0.75;0.75;;;;;;;-3.60;83.94;97488.16;4935164;29;20055;-82
2022/01/07 04:37:45;;;;;;;0.80;0.80;;;;;;;-3.59;84.16;97497.69;4927883;29;20070;-83
2022/01/07 04:40:14;;;;;;;0.90;0.90;;;;;;;-3.59;84.58;97499.53;4951349;29;20487;-83
2022/01/07 04:42:42;;;;;;;0.90;0.90;;;;;;;-3.60;84.78;97503.16;4931461;29;20071;-83
2022/01/07 04:45:11;;;;;;;0.90;0.90;;;;;;;-3.63;85.06;97503.53;4949126;29;20043;-83
2022/01/07 04:47:39;;;;;;;0.70;0.70;;;;;;;-3.63;85.34;97509.63;4941601;29;20114;-84
2022/01/07 04:50:09;;;;;;;0.70;0.70;;;;;;;-3.61;85.25;97512.09;4934850;29;20487;-83
2022/01/07 04:52:38;;;;;;;0.88;0.88;;;;;;;-3.63;85.10;97517.53;4940249;29;20392;-82
2022/01/07 04:55:06;;;;;;;0.70;0.70;;;;;;;-3.65;85.40;97518.72;4940962;29;20052;-83
2022/01/07 04:57:33;;;;;;;0.77;0.77;;;;;;;-3.66;85.15;97520.56;4940886;29;20058;-84
2022/01/07 05:00:00;;;;;;;0.70;0.70;;;;;;;-3.68;84.96;97525.19;4941206;29;20071;-84
2022/01/07 05:02:28;;;;;;;0.70;0.70;;;;;;;-3.69;84.73;97534.13;4940540;29;20511;-84
2022/01/07 05:04:56;;;;;;;4.35;0.80;;;;;;;-3.74;84.71;97531.25;4940562;29;20050;-85
2022/01/07 05:07:23;;;;;;;0.65;0.65;;;;;;;-3.79;84.26;97531.81;4940573;29;20214;-84
2022/01/07 05:09:50;;;;;;;0.70;0.70;;;;;;;-3.79;84.58;97541.53;4940454;29;20047;-83
2022/01/07 05:12:17;;;;;;;0.70;0.70;;;;;;;-3.83;84.50;97545.56;4940684;29;20059;-83
2022/01/07 05:14:44;;;;;;;0.80;0.80;;;;;;;-3.82;84.79;97544.53;4940975;29;20111;-83
2022/01/07 05:17:11;;;;;;;0.70;0.70;;;;;;;-3.83;84.83;97553.47;4940292;29;20503;-83
2022/01/07 05:19:38;;;;;;;0.80;0.80;;;;;;;-3.86;84.29;97549.38;4940695;29;20462;-84
2022/01/07 05:22:05;;;;;;;0.75;0.75;;;;;;;-3.89;83.77;97548.94;4944056;29;20055;-82
2022/01/07 05:24:33;;;;;;;0.75;0.75;;;;;;;-3.96;83.64;97562.06;4950152;29;20051;-83
2022/01/07 05:27:00;;;;;;;0.80;0.80;;;;;;;-3.98;83.65;97564.88;4949046;29;20079;-83
2022/01/07 05:29:28;;;;;;;0.80;0.80;;;;;;;-4.01;83.48;97559.97;4944163;29;20052;-84
2022/01/07 05:31:55;;;;;;;0.80;0.80;;;;;;;-4.06;83.49;97565.00;4940243;29;20506;-85
2022/01/07 05:34:22;;;;;;;0.80;0.80;;;;;;;-4.08;83.31;97569.63;4940514;29;20051;-83
2022/01/07 05:36:49;;;;;;;0.70;0.70;;;;;;;-4.12;83.24;97568.38;4923443;29;20086;-84
2022/01/07 05:39:16;;;;;;;0.98;0.98;;;;;;;-4.14;83.09;97570.38;4939911;29;20090;-84
2022/01/07 05:41:43;;;;;;;0.70;0.70;;;;;;;-4.06;82.65;97582.63;4940202;29;20058;-85
2022/01/07 05:44:10;;;;;;;0.80;0.80;;;;;;;-4.03;82.19;97577.78;4940422;29;20059;-85
2022/01/07 05:46:38;;;;;;;0.75;0.75;;;;;;;-4.00;81.79;97587.97;4940486;29;20093;-84
2022/01/07 05:49:05;;;;;;;0.85;0.85;;;;;;;-3.98;81.51;97583.31;4940209;29;20056;-83
2022/01/07 05:51:32;;;;;;;1.00;1.00;;;;;;;-3.96;81.03;97604.22;4940012;29;20055;-84
2022/01/07 05:53:59;;;;;;;0.90;0.90;;;;;;;-3.98;80.37;97599.13;4939993;29;20083;-84
2022/01/07 05:56:26;;;;;;;0.90;0.90;;;;;;;-4.01;80.34;97607.41;4936505;29;20052;-84
2022/01/07 05:58:53;;;;;;;0.95;0.95;;;;;;;-4.05;80.41;97603.53;4927606;29;20055;-82
2022/01/07 06:01:21;;;;;;;0.80;0.80;;;;;;;-4.07;80.43;97605.53;4933382;29;20110;-82
2022/01/07 06:03:48;;;;;;;0.82;0.82;;;;;;;-4.13;80.11;97606.25;4924542;29;20138;-84
2022/01/07 06:06:15;;;;;;;0.82;0.82;;;;;;;-4.20;79.98;97608.03;4925303;29;20055;-83
2022/01/07 06:08:42;;;;;;;0.80;0.80;;;;;;;-4.27;80.01;97609.75;4909336;29;20231;-83
2022/01/07 06:11:09;;;;;;;0.80;0.80;;;;;;;-4.32;80.32;97620.84;4929331;29;20047;-84
2022/01/07 06:13:36;;;;;;;0.80;0.80;;;;;;;-4.31;79.81;97621.66;4936709;29;20545;-82
2022/01/07 06:16:04;;;;;;;0.80;0.80;;;;;;;-4.36;80.25;97630.91;4942068;29;20114;-84
2022/01/07 06:18:31;;;;;;;0.70;0.70;;;;;;;-4.35;80.43;97626.47;4954303;29;20523;-82
2022/01/07 06:20:58;;;;;;;0.75;0.75;;;;;;;-4.37;80.47;97633.75;4936694;29;20059;-86
2022/01/07 06:23:25;;;;;;;0.65;0.65;;;;;;;-4.39;80.74;97635.75;4931347;29;20115;-85
2022/01/07 06:25:52;;;;;;;0.80;0.80;;;;;;;-4.39;79.52;97641.81;4935973;29;20056;-83
2022/01/07 06:28:20;;;;;;;0.80;0.80;;;;;;;-4.40;79.65;97634.13;4909835;29;20040;-88
2022/01/07 06:30:47;;;;;;;0.88;0.88;;;;;;;-4.43;79.27;97637.94;4931557;29;20566;-87
2022/01/07 06:33:14;;;;;;;0.70;0.70;;;;;;;-4.47;79.27;97631.38;4929139;29;20147;-89
2022/01/07 06:35:41;;;;;;;0.90;0.90;;;;;;;-4.53;78.81;97633.91;4939172;29;20047;-86
2022/01/07 06:38:08;;;;;;;0.80;0.80;;;;;;;-4.59;78.95;97636.28;4937176;29;20079;-93
2022/01/07 06:40:35;;;;;;;0.70;0.70;;;;;;;-4.66;79.11;97634.56;4932555;29;20077;-87
2022/01/07 06:43:02;;;;;;;0.95;0.95;;;;;;;-4.73;79.23;97645.00;4922492;29;20052;-87
2022/01/07 06:45:29;;;;;;;0.80;0.80;;;;;;;-4.78;79.76;97647.38;4938654;29;20040;-89
2022/01/07 06:47:59;;;;;;;0.80;0.80;;;;;;;-4.84;79.26;97648.06;4940176;29;20655;-88
2022/01/07 06:50:26;;;;;;;0.88;0.88;;;;;;;-4.88;79.67;97660.78;4929174;29;20361;-88
2022/01/07 06:52:53;;;;;;;0.85;0.85;;;;;;;-4.93;79.17;97662.31;4929048;29;20083;-85
2022/01/07 06:55:21;;;;;;;1.00;1.00;;;;;;;-4.95;78.83;97661.66;4944075;29;20035;-85
2022/01/07 06:57:48;;;;;;;0.98;0.98;;;;;;;-4.96;78.15;97666.13;4928343;29;20052;-88
2022/01/07 07:00:16;;;;;;;0.70;0.70;;;;;;;-4.98;76.33;97677.81;4936007;29;20115;-87
2022/01/07 07:02:43;;;;;;;0.90;0.90;;;;;;;-4.98;74.39;97680.47;4925055;29;20106;-90
2022/01/07 07:05:10;;;;;;;0.85;0.85;;;;;;;-4.96;73.30;97678.44;4947769;29;20089;-87
2022/01/07 07:07:37;;;;;;;0.90;0.90;;;;;;;-4.93;73.34;97678.91;4933166;29;20099;-85
2022/01/07 07:10:05;;;;;;;0.70;0.70;;;;;;;-4.95;72.62;97682.72;4930611;29;20060;-83
2022/01/07 07:12:32;;;;;;;0.93;0.93;;;;;;;-4.95;72.27;97683.53;4922407;29;20511;-85
2022/01/07 07:14:59;;;;;;;0.90;0.90;;;;;;;-4.94;71.53;97684.34;4930034;28;20055;-88
2022/01/07 07:17:27;;;;;;;0.82;0.82;;;;;;;-4.93;70.56;97691.25;4937740;29;20485;-87
2022/01/07 07:19:54;;;;;;;0.80;0.80;;;;;;;-4.94;68.81;97698.31;4919328;29;20154;-85
2022/01/07 07:22:21;;;;;;;0.85;0.85;;;;;;;-4.97;67.94;97700.50;4937368;29;20111;-86
2022/01/07 07:24:48;;;;;;;0.90;0.90;;;;;;;-5.00;68.04;97704.31;4935817;29;20052;-86
2022/01/07 07:27:15;;;;;;;0.90;0.90;;;;;;;-4.99;66.00;97705.94;4935206;29;20079;-85
2022/01/07 07:29:42;;;;;;;0.63;0.63;;;;;;;-4.99;65.41;97702.47;4935281;29;20086;-83
2022/01/07 07:32:11;;;;;;;0.95;0.95;;;;;;;-4.97;65.64;97709.19;4936203;29;20092;-88
2022/01/07 07:34:57;;;;;;;0.90;0.90;;;;;;;-4.95;64.96;97699.31;4937839;29;20059;-86
2022/01/07 07:37:24;;;;;;;0.70;0.70;;;;;;;-4.98;64.03;97704.94;4938363;29;20060;-85
2022/01/07 07:39:51;;;;;;;1.00;1.00;;;;;;;-5.02;64.88;97711.53;4935905;29;20519;-86
2022/01/07 07:42:18;;;;;;;0.63;0.63;;;;;;;-5.05;64.27;97717.97;4578301;28;10000042;-89
2022/01/07 07:44:51;;;;;;;0.75;0.75;;;;;;;-5.08;63.49;97720.16;4924793;29;20048;-90
2022/01/07 07:47:18;;;;;;;0.80;0.80;;;;;;;-5.11;63.69;97720.53;4928116;29;20090;-88
2022/01/07 07:49:46;;;;;;;0.68;0.68;;;;;;;-5.14;64.15;97718.22;4937808;29;20419;-90
2022/01/07 07:52:13;;;;;;;0.80;0.80;;;;;;;-5.19;64.08;97710.03;4932684;29;20570;-82
2022/01/07 07:54:40;;;;;;;0.70;0.70;;;;;;;-5.17;64.59;97718.56;4936227;29;20103;-87
2022/01/07 07:57:07;;;;;;;0.82;0.82;;;;;;;-5.08;65.26;97714.91;4918551;29;20139;-89
2022/01/07 07:59:34;;;;;;;0.90;0.90;;;;;;;-4.96;65.34;97723.16;4934014;29;20134;-86
2022/01/07 08:02:02;;;;;;;0.88;0.88;;;;;;;-4.92;65.61;97716.56;4935220;29;20063;-87
2022/01/07 08:04:30;;;;;;;0.85;0.85;;;;;;;-4.89;66.19;97724.91;4934283;29;20169;-86
2022/01/07 08:06:57;;;;;;;0.80;0.80;;;;;;;-4.84;66.31;97729.66;4906195;29;20047;-84
2022/01/07 08:09:24;;;;;;;0.70;0.70;;;;;;;-4.80;66.74;97729.13;4903419;29;20066;-92
2022/01/07 08:11:55;;;;;;;0.82;0.82;;;;;;;-4.68;66.94;97733.97;4922298;29;20104;-89
2022/01/07 08:17:09;;;;;;;0.70;0.70;;;;;;;-4.70;67.65;97734.16;4928940;29;20063;-87
2022/01/07 08:19:36;;;;;;;0.90;0.90;;;;;;;-4.79;68.37;97738.66;4921166;29;20570;-87
2022/01/07 08:22:18;;;;;;;0.65;0.65;;;;;;;-4.94;68.79;97736.97;4911043;29;20047;-88
2022/01/07 08:24:45;;;;;;;0.73;0.73;;;;;;;-4.99;69.21;97745.41;4928630;29;20056;-90
2022/01/07 08:27:12;;;;;;;0.88;0.88;;;;;;;-5.02;69.76;97751.81;4908287;29;20075;-87
2022/01/07 08:30:05;;;;;;;1.10;1.10;;;;;;;-5.03;69.96;97750.22;4916154;29;20051;-87
2022/01/07 08:35:18;;;;;;;0.93;0.93;;;;;;;-5.22;69.83;97771.69;4937780;29;20071;-90
2022/01/07 08:37:46;;;;;;;0.70;0.70;;;;;;;-5.27;70.01;97779.31;4944954;29;20059;-89
2022/01/07 08:40:13;;;;;;;0.80;0.80;;;;;;;-5.35;69.68;97781.97;4933092;29;20518;-90
2022/01/07 08:42:40;;;;;;;0.90;0.90;;;;;;;-5.41;68.82;97783.50;4919648;29;20044;-89
2022/01/07 08:45:08;;;;;;;0.63;0.63;;;;;;;-5.49;68.23;97804.59;4918143;29;20052;-88
2022/01/07 08:47:35;;;;;;;0.80;0.80;;;;;;;-5.49;68.50;97801.97;4905629;29;20457;-88
2022/01/07 08:50:03;;;;;;;1.02;1.02;;;;;;;-5.49;68.33;97786.19;4913156;29;20563;-89
2022/01/07 08:52:30;;;;;;;1.00;1.00;;;;;;;-5.38;68.37;97819.16;4924097;29;20170;-85
2022/01/07 08:54:57;;;;;;;0.75;0.75;;;;;;;-5.34;67.47;97815.16;4912836;29;20051;-85
2022/01/07 08:57:24;;;;;;;0.98;0.98;;;;;;;-4.96;66.52;97816.13;4914283;29;20131;-85
2022/01/07 08:59:52;;;;;;;1.00;1.00;;;;;;;-4.82;64.00;97810.06;4932088;29;20139;-87
2022/01/07 09:02:19;;;;;;;0.77;0.77;;;;;;;-4.30;61.23;97816.41;4930961;29;20445;-84
2022/01/07 09:04:46;;;;;;;0.90;0.90;;;;;;;-4.51;60.55;97819.69;4930969;29;20060;-85
2022/01/07 09:07:13;;;;;;;0.80;0.80;;;;;;;-4.86;61.29;97824.59;4929323;29;20078;-84
2022/01/07 09:09:41;;;;;;;0.70;0.70;;;;;;;-5.02;62.59;97824.69;4930573;29;20135;-86
2022/01/07 09:12:09;;;;;;;0.80;0.80;;;;;;;-5.10;62.03;97840.53;4930810;29;20062;-85
2022/01/07 09:14:36;;;;;;;0.80;0.80;;;;;;;-5.31;62.62;97836.69;4931260;29;20401;-85
2022/01/07 09:17:04;;;;;;;0.80;0.80;;;;;;;-5.16;62.60;97843.88;4936739;29;20043;-90
2022/01/07 09:19:32;;;;;;;1.17;1.17;;;;;;;-4.80;62.28;97850.22;4927161;29;20058;-87
2022/01/07 09:21:59;;;;;;;0.90;0.90;;;;;;;-4.21;61.67;97854.03;4931124;29;20062;-84
2022/01/07 09:24:27;;;;;;;1.40;1.30;;;;;;;-3.89;60.53;97857.38;4934554;29;20115;-90
2022/01/07 09:26:54;;;;;;;1.10;1.10;;;;;;;-3.80;59.38;97851.84;4936078;29;20525;-88
2022/01/07 09:29:23;;;;;;;1.00;1.00;;;;;;;-4.20;60.19;97855.69;4935437;29;20048;-87
2022/01/07 09:31:51;;;;;;;1.40;1.30;;;;;;;-3.67;59.73;97860.91;4930461;29;20184;-84
2022/01/07 09:34:19;;;;;;;0.90;0.90;;;;;;;-3.71;59.60;97871.00;4914460;29;20089;-85
2022/01/07 09:36:57;;;;;;;1.00;1.00;;;;;;;-4.37;60.24;97871.63;4910518;29;20056;-86
2022/01/07 09:39:24;;;;;;;1.33;1.23;;;;;;;-4.09;59.93;97864.97;4906429;29;20079;-85
2022/01/07 09:41:51;;;;;;;1.20;1.15;;;;;;;-3.56;58.61;97863.91;4913525;29;20159;-84
2022/01/07 09:44:19;;;;;;;0.88;0.88;;;;;;;-3.08;56.36;97866.94;4913643;29;20052;-86
2022/01/07 09:46:46;;;;;;;0.90;0.90;;;;;;;-3.63;57.86;97875.38;4915044;29;20087;-84
2022/01/07 09:49:13;;;;;;;1.30;1.20;;;;;;;-3.87;58.76;97881.69;4897332;29;20052;-85
2022/01/07 09:51:41;;;;;;;1.48;1.38;;;;;;;-2.63;57.55;97883.50;4902855;29;20048;-85
2022/01/07 09:54:09;;;;;;;1.50;1.40;;;;;;;-1.81;54.45;97879.50;4899642;29;20057;-86
2022/01/07 09:56:37;;;;;;;1.40;1.30;;;;;;;-1.70;54.89;97878.16;4906329;29;20048;-85
2022/01/07 09:59:06;;;;;;;1.00;1.00;;;;;;;-1.42;53.45;97883.44;4894446;29;20056;-88
2022/01/07 10:01:57;;;;;;;1.50;1.40;;;;;;;-0.91;52.00;97880.41;4866496;29;20647;-89
2022/01/07 10:04:31;;;;;;;1.50;1.40;;;;;;;-0.97;51.03;97870.59;4898812;29;20055;-91
2022/01/07 10:07:25;;;;;;;1.38;1.27;;;;;;;-0.71;50.89;97879.63;4900136;29;20061;-89
2022/01/07 10:10:00;;;;;;;1.27;1.20;;;;;;;-1.76;52.40;97886.88;4908246;29;20051;-90
2022/01/07 10:12:32;;;;;;;1.50;1.40;;;;;;;-1.35;51.73;97888.75;4917179;29;20060;-86
2022/01/07 10:15:15;;;;;;;1.55;1.45;;;;;;;-1.05;51.12;97878.72;4914341;29;20044;-86
2022/01/07 10:18:19;;;;;;;1.45;1.35;;;;;;;-0.90;50.13;97875.91;4915919;29;20067;-84
2022/01/07 10:20:48;;;;;;;1.50;1.40;;;;;;;-0.74;49.42;97883.50;4855353;29;20057;-88
2022/01/07 10:23:24;;;;;;;1.55;1.45;;;;;;;-0.46;49.17;97864.84;4857818;29;20525;-87
2022/01/07 10:25:55;;;;;;;1.70;1.60;;;;;;;-0.42;49.10;97877.69;4861101;29;20065;-87
2022/01/07 10:28:30;;;;;;;1.70;1.60;;;;;;;-0.47;48.92;97868.47;4878955;29;20057;-88
2022/01/07 10:31:03;;;;;;;1.65;1.55;;;;;;;-0.33;48.90;97871.13;4874635;29;20139;-88
2022/01/07 10:33:41;;;;;;;1.50;1.40;;;;;;;-0.39;48.04;97864.81;4846596;29;20152;-87
2022/01/07 10:36:08;;;;;;;1.55;1.45;;;;;;;-0.25;48.88;97871.78;4863325;29;20184;-88
2022/01/07 10:38:45;;;;;;;1.50;1.40;;;;;;;-0.11;48.72;97851.38;4884250;29;20060;-87
2022/01/07 10:41:13;;;;;;;1.55;1.45;;;;;;;-0.01;47.30;97865.03;4910050;29;20053;-89
2022/01/07 10:43:41;;;;;;;1.50;1.40;;;;;;;-0.31;47.46;97874.41;4908247;29;20123;-89
2022/01/07 10:46:10;;;;;;;1.60;1.50;;;;;;;-0.30;47.77;97868.91;4884391;29;20060;-90
2022/01/07 10:48:41;;;;;;;1.60;1.50;;;;;;;-0.17;48.10;97870.75;4894286;29;20155;-90
2022/01/07 10:51:20;;;;;;;1.38;1.27;;;;;;;0.20;47.13;97866.69;4885857;29;20049;-87
2022/01/07 10:53:53;;;;;;;1.38;1.27;;;;;;;0.22;46.74;97864.63;4900269;29;20056;-89
2022/01/07 10:56:33;;;;;;;1.40;1.30;;;;;;;0.37;46.78;97869.69;4942404;29;20063;-88
2022/01/07 10:59:07;;;;;;;1.50;1.40;;;;;;;-0.24;46.80;97864.63;4941610;29;20508;-88
2022/01/07 11:01:35;;;;;;;1.60;1.50;;;;;;;-0.22;47.87;97852.81;4947562;28;20102;-88
2022/01/07 11:04:07;;;;;;;1.60;1.50;;;;;;;-0.15;46.54;97859.94;4952685;28;20052;-91
2022/01/07 11:06:36;;;;;;;1.40;1.30;;;;;;;-0.26;47.80;97864.81;4966966;28;20214;-86
2022/01/07 11:09:06;;;;;;;1.67;1.58;;;;;;;-0.03;46.60;97850.34;4961611;28;20053;-93
2022/01/07 11:11:34;;;;;;;1.60;1.50;;;;;;;0.26;46.66;97848.31;4952017;28;20102;-93
2022/01/07 11:14:06;;;;;;;1.60;1.50;;;;;;;0.03;46.22;97848.75;4955479;28;20150;-92
2022/01/07 11:16:37;;;;;;;1.50;1.40;;;;;;;-0.05;46.55;97853.22;4945989;29;20075;-91
2022/01/07 11:19:22;;;;;;;1.60;1.50;;;;;;;-0.35;47.22;97858.09;4917652;29;20051;-93
2022/01/07 11:21:51;;;;;;;1.48;1.38;;;;;;;-0.39;47.06;97862.16;4956490;29;20514;-92
2022/01/07 11:24:39;;;;;;;1.70;1.60;;;;;;;-0.44;47.21;97865.41;4917700;29;20605;-91
2022/01/07 11:27:06;;;;;;;1.50;1.40;;;;;;;-0.50;47.69;97868.09;4962129;28;20074;-91
2022/01/07 11:29:46;;;;;;;1.45;1.35;;;;;;;-0.78;47.81;97873.53;4961660;28;20404;-91
2022/01/07 11:32:25;;;;;;;1.67;1.58;;;;;;;-0.96;48.15;97882.00;4944585;29;20063;-88
2022/01/07 11:34:54;;;;;;;1.67;1.58;;;;;;;-1.04;48.47;97877.69;4965705;28;20051;-88
2022/01/07 11:37:37;;;;;;;1.50;1.40;;;;;;;-0.99;48.38;97880.56;4966622;28;20452;-95
2022/01/07 11:40:32;;;;;;;1.35;1.27;;;;;;;-1.37;48.95;97875.72;4929184;29;20055;-94
2022/01/07 11:43:31;;;;;;;1.52;1.42;;;;;;;-1.36;49.17;97890.59;4958191;29;20055;-91
2022/01/07 11:46:20;;;;;;;1.48;1.38;;;;;;;-1.38;49.49;97878.56;4948438;29;20055;-91
2022/01/07 11:48:54;;;;;;;1.30;1.20;;;;;;;-2.67;51.44;97887.50;4968578;29;20272;-91